Time;durP1;ratioP1;P1;durP2;ratioP2;P2;SDS_P1;SDS_P2;PMS_P1;PMS_P2;Temp;Humidity;BMP_temperature;BMP_pressure;BME280_temperature;BME280_humidity;BME280_pressure;Samples;Min_cycle;Max_cycle;Signal;HPM_P1;HPM_P2
2022/12/16 00:00:42;;;;;;;74.78;35.42;;;-2.30;99.90;;;;;;5052682;28;20475;-73
2022/12/16 00:03:08;;;;;;;73.60;35.53;;;-2.30;99.90;;;;;;5051107;28;20037;-73
2022/12/16 00:05:36;;;;;;;74.10;34.58;;;-2.30;99.90;;;;;;5054410;28;20025;-73
2022/12/16 00:08:02;;;;;;;70.13;34.28;;;-2.30;99.90;;;;;;5051516;28;20433;-73
2022/12/16 00:10:51;;;;;;;70.70;32.90;;;-2.40;99.90;;;;;;5051119;28;20021;-73
2022/12/16 00:13:13;;;;;;;67.40;32.80;;;-2.40;99.90;;;;;;5039886;28;20068;-73
2022/12/16 00:15:38;;;;;;;71.55;32.88;;;-2.30;99.90;;;;;;5050204;28;20060;-73
2022/12/16 00:18:04;;;;;;;59.17;30.05;;;-2.30;99.90;;;;;;5051196;28;20021;-73
2022/12/16 00:20:30;;;;;;;70.30;33.08;;;-2.20;99.90;;;;;;5057964;28;20040;-73
2022/12/16 00:22:55;;;;;;;64.32;32.42;;;-2.20;99.90;;;;;;5051200;28;20082;-72
2022/12/16 00:25:21;;;;;;;69.40;32.92;;;-2.30;99.90;;;;;;5050271;28;20115;-73
2022/12/16 00:27:46;;;;;;;73.15;33.00;;;-2.20;99.90;;;;;;5050380;28;20418;-72
2022/12/16 00:30:12;;;;;;;69.13;32.13;;;-2.20;99.90;;;;;;5032895;28;20033;-72
2022/12/16 00:32:38;;;;;;;69.43;33.95;;;-2.30;99.90;;;;;;5050108;28;20065;-72
2022/12/16 00:35:04;;;;;;;71.15;33.70;;;-2.40;99.90;;;;;;5050320;28;20060;-71
2022/12/16 00:37:29;;;;;;;70.47;32.70;;;-2.40;99.90;;;;;;5055779;28;20031;-72
2022/12/16 00:39:55;;;;;;;68.18;33.83;;;-2.40;99.90;;;;;;5051338;28;20060;-72
2022/12/16 00:42:20;;;;;;;73.72;34.38;;;-2.40;99.90;;;;;;5051026;28;20378;-72
2022/12/16 00:44:46;;;;;;;69.68;32.53;;;-2.40;99.90;;;;;;5049010;28;20390;-72
2022/12/16 00:47:12;;;;;;;71.25;33.85;;;-2.30;99.90;;;;;;5051223;28;20025;-71
2022/12/16 00:49:37;;;;;;;74.50;34.60;;;-2.40;99.90;;;;;;5049573;28;20028;-72
2022/12/16 00:52:03;;;;;;;72.85;33.38;;;-2.40;99.90;;;;;;5050405;28;20414;-72
2022/12/16 00:54:28;;;;;;;72.68;34.72;;;-2.30;99.90;;;;;;5054185;28;20033;-72
2022/12/16 00:56:55;;;;;;;77.05;35.65;;;-2.40;99.90;;;;;;5050520;28;20029;-72
2022/12/16 00:59:20;;;;;;;73.03;32.50;;;-2.40;99.90;;;;;;5050903;28;20100;-72
2022/12/16 01:01:46;;;;;;;70.15;34.80;;;-2.50;99.90;;;;;;5049092;28;20108;-71
2022/12/16 01:04:11;;;;;;;72.55;34.25;;;-2.50;99.90;;;;;;5050269;28;20041;-73
2022/12/16 01:06:37;;;;;;;74.90;35.35;;;-2.60;99.90;;;;;;5049755;28;20116;-71
2022/12/16 01:09:03;;;;;;;80.53;35.22;;;-2.50;99.90;;;;;;5051099;28;20021;-72
2022/12/16 01:11:28;;;;;;;78.82;36.88;;;-2.60;99.90;;;;;;5060082;28;20025;-72
2022/12/16 01:13:54;;;;;;;69.68;33.58;;;-2.60;99.90;;;;;;5055078;28;20465;-71
2022/12/16 01:16:19;;;;;;;78.32;36.25;;;-2.50;99.90;;;;;;5050402;28;20492;-72
2022/12/16 01:18:45;;;;;;;79.90;35.10;;;-2.60;99.90;;;;;;5049970;28;20428;-71
2022/12/16 01:21:13;;;;;;;78.95;34.88;;;-2.60;99.90;;;;;;5050692;28;20029;-72
2022/12/16 01:23:39;;;;;;;80.35;36.95;;;-2.50;99.90;;;;;;5048122;28;20466;-72
2022/12/16 01:26:05;;;;;;;73.38;35.25;;;-2.50;99.90;;;;;;5050862;28;20033;-72
2022/12/16 01:28:31;;;;;;;83.78;36.42;;;-2.50;99.90;;;;;;5042390;28;20098;-73
2022/12/16 01:31:00;;;;;;;76.78;35.90;;;-2.50;99.90;;;;;;5050940;28;20032;-72
2022/12/16 01:33:27;;;;;;;72.80;34.67;;;-2.60;99.90;;;;;;5049054;28;20470;-73
2022/12/16 01:36:05;;;;;;;78.25;36.22;;;-2.50;99.90;;;;;;5049677;28;20047;-72
2022/12/16 01:38:31;;;;;;;71.65;33.67;;;-2.60;99.90;;;;;;5049748;28;20035;-73
2022/12/16 01:40:57;;;;;;;74.45;33.92;;;-2.50;99.90;;;;;;5050618;28;20385;-72
2022/12/16 01:43:26;;;;;;;75.90;34.55;;;-2.50;99.90;;;;;;5049905;28;20024;-73
2022/12/16 01:45:59;;;;;;;76.07;35.75;;;-2.60;99.90;;;;;;5048535;28;20029;-72
2022/12/16 01:48:45;;;;;;;75.32;34.53;;;-2.70;99.90;;;;;;5049284;28;20033;-73
2022/12/16 01:51:21;;;;;;;73.90;34.10;;;-2.70;99.90;;;;;;5054997;28;20041;-73
2022/12/16 01:53:49;;;;;;;72.80;33.67;;;-2.70;99.90;;;;;;5056917;28;20032;-73
2022/12/16 01:56:16;;;;;;;74.40;33.50;;;-2.70;99.90;;;;;;5058876;28;20048;-73
2022/12/16 01:58:44;;;;;;;69.22;33.63;;;-2.60;99.90;;;;;;5056806;28;20273;-73
2022/12/16 02:01:11;;;;;;;73.70;33.97;;;-2.60;99.90;;;;;;5055405;28;20039;-71
2022/12/16 02:03:38;;;;;;;73.45;34.20;;;-2.60;99.90;;;;;;5055141;28;20300;-72
2022/12/16 02:06:05;;;;;;;68.28;32.55;;;-2.70;99.90;;;;;;5059350;28;20045;-73
2022/12/16 02:08:31;;;;;;;72.60;33.95;;;-2.70;99.90;;;;;;5056923;28;20476;-72
2022/12/16 02:11:11;;;;;;;69.93;34.40;;;-2.70;99.90;;;;;;5059198;28;20082;-72
2022/12/16 02:13:39;;;;;;;;;;;-2.70;99.90;;;;;;5056343;28;20035;-73
2022/12/16 02:16:14;;;;;;;75.30;33.33;;;-2.70;99.90;;;;;;5064312;28;20390;-72
2022/12/16 02:18:55;;;;;;;69.43;34.08;;;-2.70;99.90;;;;;;5055298;28;20078;-72
2022/12/16 02:21:49;;;;;;;69.82;32.20;;;-2.70;99.90;;;;;;5062024;28;20043;-73
2022/12/16 02:24:40;;;;;;;70.07;32.30;;;-2.70;99.90;;;;;;5033802;28;20481;-72
2022/12/16 02:27:25;;;;;;;65.13;30.83;;;-2.70;99.90;;;;;;5054348;28;20065;-74
2022/12/16 02:30:01;;;;;;;67.30;32.95;;;-2.50;99.90;;;;;;5060034;28;20107;-73
2022/12/16 02:32:52;;;;;;;67.03;32.60;;;-2.60;99.90;;;;;;5062091;28;20052;-73
2022/12/16 02:35:40;;;;;;;70.40;32.78;;;-2.60;99.90;;;;;;5063538;28;20056;-72
2022/12/16 02:38:12;;;;;;;65.25;32.30;;;-2.60;99.90;;;;;;5062916;28;20028;-74
2022/12/16 02:40:51;;;;;;;70.75;33.22;;;-2.70;99.90;;;;;;5058709;28;20056;-72
2022/12/16 02:43:33;;;;;;;66.65;31.98;;;-2.70;99.90;;;;;;5045143;28;20020;-73
2022/12/16 02:46:00;;;;;;;70.25;32.78;;;-2.60;99.90;;;;;;5063015;28;20025;-73
2022/12/16 02:48:25;;;;;;;66.90;31.15;;;-2.60;99.90;;;;;;5061283;28;20021;-73
2022/12/16 02:50:51;;;;;;;69.72;31.73;;;-2.60;99.90;;;;;;5062684;28;20095;-72
2022/12/16 02:53:19;;;;;;;66.32;30.52;;;-2.60;99.90;;;;;;5058581;28;20474;-72
2022/12/16 02:56:30;;;;;;;66.43;31.80;;;-2.60;99.90;;;;;;5058826;28;20094;-72
2022/12/16 02:59:37;;;;;;;67.93;30.95;;;-2.60;99.90;;;;;;5052859;28;20393;-74
2022/12/16 03:02:11;;;;;;;66.80;32.10;;;-2.60;99.90;;;;;;5059906;28;20358;-72
2022/12/16 03:04:51;;;;;;;62.20;30.55;;;-2.60;99.90;;;;;;5059412;28;20025;-72
2022/12/16 03:07:19;;;;;;;65.47;30.65;;;-2.70;99.90;;;;;;5059987;28;20028;-73
2022/12/16 03:09:46;;;;;;;67.60;32.33;;;-2.70;99.90;;;;;;5058286;28;20076;-72
2022/12/16 03:12:16;;;;;;;67.97;31.13;;;-2.70;99.90;;;;;;5059566;28;20029;-72
2022/12/16 03:14:47;;;;;;;66.00;31.33;;;-2.70;99.90;;;;;;5060315;28;20039;-72
2022/12/16 03:17:15;;;;;;;63.25;30.45;;;-2.70;99.90;;;;;;5057348;28;20017;-73
2022/12/16 03:19:45;;;;;;;69.85;31.33;;;-2.70;99.90;;;;;;5058476;28;20609;-72
2022/12/16 03:22:19;;;;;;;66.88;30.50;;;-2.80;99.90;;;;;;5058976;28;20051;-72
2022/12/16 03:24:45;;;;;;;62.40;29.88;;;-2.80;99.90;;;;;;5056481;28;20037;-72
2022/12/16 03:27:22;;;;;;;63.95;30.98;;;-2.70;99.90;;;;;;5058260;28;20044;-71
2022/12/16 03:30:15;;;;;;;63.60;29.85;;;-2.70;99.90;;;;;;5057965;28;20016;-72
2022/12/16 03:32:46;;;;;;;61.05;29.83;;;-2.70;99.90;;;;;;5057018;28;20604;-72
2022/12/16 03:35:15;;;;;;;59.40;28.30;;;-2.70;99.90;;;;;;5059627;28;20150;-72
2022/12/16 03:37:43;;;;;;;64.97;31.08;;;-2.70;99.90;;;;;;5057430;28;20020;-73
2022/12/16 03:40:10;;;;;;;60.30;29.13;;;-2.70;99.90;;;;;;5054316;28;20020;-73
2022/12/16 03:42:37;;;;;;;62.75;30.77;;;-2.70;99.90;;;;;;5057574;28;20033;-73
2022/12/16 03:45:05;;;;;;;61.75;31.33;;;-2.70;99.90;;;;;;5057581;28;20033;-73
2022/12/16 03:47:30;;;;;;;67.43;30.25;;;-2.70;99.90;;;;;;5059620;28;20067;-72
2022/12/16 03:49:56;;;;;;;65.68;31.38;;;-2.70;99.90;;;;;;5058284;28;20048;-73
2022/12/16 03:52:21;;;;;;;65.00;29.75;;;-2.70;99.90;;;;;;5057879;28;20029;-75
2022/12/16 03:54:47;;;;;;;60.70;29.95;;;-2.70;99.90;;;;;;5059498;28;20568;-73
2022/12/16 03:57:13;;;;;;;61.30;29.67;;;-2.70;99.90;;;;;;5059996;28;20020;-73
2022/12/16 03:59:38;;;;;;;65.40;29.60;;;-2.60;99.90;;;;;;5056099;28;20078;-73
2022/12/16 04:02:04;;;;;;;59.70;29.42;;;-2.60;99.90;;;;;;5059259;28;20025;-73
2022/12/16 04:04:30;;;;;;;65.15;29.85;;;-2.50;99.90;;;;;;5057526;28;20020;-73
2022/12/16 04:09:40;;;;;;;59.97;27.40;;;-2.60;99.90;;;;;;5056334;28;20109;-73
2022/12/16 04:25:53;;;;;;;54.40;24.85;;;-2.60;99.90;;;;;;5061150;28;20109;-72
2022/12/16 04:28:19;;;;;;;50.15;24.90;;;-2.60;99.90;;;;;;5043313;28;20052;-72
2022/12/16 04:30:44;;;;;;;50.42;25.17;;;-2.60;99.90;;;;;;5039632;28;20046;-72
